51.1°F
Current conditions from King Hill
Updated every 5 minutes
 
  Tuesday September 16, 2014

Station Historical Data
Daily Summary for January 8, 2012 Units:  Both    English   Metric
« Previous Day
Next Day »
Daily Weekly Monthly Yearly Custom
  High: Low: Average:
Temperature: 34.1 °F /  1.2 °C 8.0 °F /  -13.3 °C 21.5 °F /  -5.8 °C
Dew Point: 28.3 °F /  -2.1 °C 3.9 °F /  -15.6 °C 15 °F /  -9.4 °C
Humidity: 85% 64% 76%
Wind Speed: 9.0mph /  14.5km/h - 3.6mph /  5.8km/h
Wind Gust: 17.0mph /  27.4km/h - -
Wind- - West
Pressure: 30.29 in /  1025.6 hPa 29.86 in /  1011.1 hPa -
Precipitation: 0.00 in /  0 mm    
Historical Graphs
 
 
Tabular Data for January 8, 2012
Time Temperature Dew Point Pressure Wind Wind Speed Wind Gust Humidity Daily Rainfall
00:04 34.1 °F /  1.2 °C 28.3 °F /  -2.1 °C 29.86in /  1011.1hPa West 5.0mph /  8km/h 14.0mph /  22.5km/h 79% 0.00in /  0mm
00:09 34.1 °F /  1.2 °C 28.0 °F /  -2.2 °C 29.86in /  1011.1hPa West 9.0mph /  14.5km/h 17.0mph /  27.4km/h 78% 0.00in /  0mm
00:14 34.1 °F /  1.2 °C 27.7 °F /  -2.4 °C 29.86in /  1011.1hPa West 6.0mph /  9.7km/h 17.0mph /  27.4km/h 77% 0.00in /  0mm
00:19 34.1 °F /  1.2 °C 27.7 °F /  -2.4 °C 29.86in /  1011.1hPa WSW 6.0mph /  9.7km/h 12.0mph /  19.3km/h 77% 0.00in /  0mm
00:24 33.9 °F /  1.1 °C 27.8 °F /  -2.3 °C 29.86in /  1011.1hPa WSW 5.0mph /  8km/h 11.0mph /  17.7km/h 78% 0.00in /  0mm
00:34 33.8 °F /  1 °C 27.7 °F /  -2.4 °C 29.87in /  1011.4hPa West 5.0mph /  8km/h 10.0mph /  16.1km/h 78% 0.00in /  0mm
00:39 33.7 °F /  0.9 °C 27.6 °F /  -2.4 °C 29.87in /  1011.4hPa West 5.0mph /  8km/h 9.0mph /  14.5km/h 78% 0.00in /  0mm
00:44 33.8 °F /  1 °C 27.4 °F /  -2.6 °C 29.87in /  1011.4hPa West 6.0mph /  9.7km/h 14.0mph /  22.5km/h 77% 0.00in /  0mm
00:49 33.7 °F /  0.9 °C 27.6 °F /  -2.4 °C 29.88in /  1011.7hPa WNW 5.0mph /  8km/h 14.0mph /  22.5km/h 78% 0.00in /  0mm
00:54 33.7 °F /  0.9 °C 27.3 °F /  -2.6 °C 29.88in /  1011.7hPa West 8.0mph /  12.9km/h 13.0mph /  20.9km/h 77% 0.00in /  0mm
00:59 33.5 °F /  0.8 °C 27.4 °F /  -2.6 °C 29.88in /  1011.7hPa NW 4.0mph /  6.4km/h 13.0mph /  20.9km/h 78% 0.00in /  0mm
01:04 33.4 °F /  0.8 °C 27.9 °F /  -2.3 °C 29.89in /  1012.1hPa WNW 6.0mph /  9.7km/h 12.0mph /  19.3km/h 80% 0.00in /  0mm
01:09 33.1 °F /  0.6 °C 28.2 °F /  -2.1 °C 29.89in /  1012.1hPa NW 6.0mph /  9.7km/h 11.0mph /  17.7km/h 82% 0.00in /  0mm
01:14 32.6 °F /  0.3 °C 28.0 °F /  -2.2 °C 29.89in /  1012.1hPa NW 3.0mph /  4.8km/h 11.0mph /  17.7km/h 83% 0.00in /  0mm
01:19 32.3 °F /  0.2 °C 28.0 °F /  -2.2 °C 29.90in /  1012.4hPa NW 4.0mph /  6.4km/h 11.0mph /  17.7km/h 84% 0.00in /  0mm
01:24 32.1 °F /  0.1 °C 28.1 °F /  -2.2 °C 29.90in /  1012.4hPa Calm   11.0mph /  17.7km/h 85% 0.00in /  0mm
01:29 31.9 °F /  -0.1 °C 27.9 °F /  -2.3 °C 29.91in /  1012.8hPa WNW 1.0mph /  1.6km/h 4.0mph /  6.4km/h 85% 0.00in /  0mm
01:39 31.6 °F /  -0.2 °C 27.6 °F /  -2.4 °C 29.91in /  1012.8hPa NNW 3.0mph /  4.8km/h 5.0mph /  8km/h 85% 0.00in /  0mm
01:44 31.2 °F /  -0.4 °C 26.9 °F /  -2.8 °C 29.92in /  1013.1hPa NW 6.0mph /  9.7km/h 10.0mph /  16.1km/h 84% 0.00in /  0mm
01:49 30.9 °F /  -0.6 °C 26.3 °F /  -3.2 °C 29.92in /  1013.1hPa NW 3.0mph /  4.8km/h 10.0mph /  16.1km/h 83% 0.00in /  0mm
01:54 30.6 °F /  -0.8 °C 25.8 °F /  -3.4 °C 29.92in /  1013.1hPa WNW 5.0mph /  8km/h 11.0mph /  17.7km/h 82% 0.00in /  0mm
01:59 30.4 °F /  -0.9 °C 25.6 °F /  -3.6 °C 29.92in /  1013.1hPa NW 5.0mph /  8km/h 11.0mph /  17.7km/h 82% 0.00in /  0mm
02:04 30.2 °F /  -1 °C 25.4 °F /  -3.7 °C 29.92in /  1013.1hPa NW 5.0mph /  8km/h 11.0mph /  17.7km/h 82% 0.00in /  0mm
02:09 30.0 °F /  -1.1 °C 25.2 °F /  -3.8 °C 29.93in /  1013.4hPa NNW 5.0mph /  8km/h 11.0mph /  17.7km/h 82% 0.00in /  0mm
02:14 29.9 °F /  -1.2 °C 25.1 °F /  -3.8 °C 29.93in /  1013.4hPa NW 8.0mph /  12.9km/h 13.0mph /  20.9km/h 82% 0.00in /  0mm
02:19 29.8 °F /  -1.2 °C 25.0 °F /  -3.9 °C 29.93in /  1013.4hPa NNW 6.0mph /  9.7km/h 15.0mph /  24.1km/h 82% 0.00in /  0mm
02:24 29.8 °F /  -1.2 °C 25.3 °F /  -3.7 °C 29.94in /  1013.8hPa NNW 3.0mph /  4.8km/h 15.0mph /  24.1km/h 83% 0.00in /  0mm
02:29 29.7 °F /  -1.3 °C 24.9 °F /  -3.9 °C 29.94in /  1013.8hPa NNW 6.0mph /  9.7km/h 10.0mph /  16.1km/h 82% 0.00in /  0mm
02:34 29.6 °F /  -1.3 °C 24.5 °F /  -4.2 °C 29.95in /  1014.1hPa NW 3.0mph /  4.8km/h 9.0mph /  14.5km/h 81% 0.00in /  0mm
02:39 29.5 °F /  -1.4 °C 24.1 °F /  -4.4 °C 29.95in /  1014.1hPa NNW 4.0mph /  6.4km/h 9.0mph /  14.5km/h 80% 0.00in /  0mm
02:44 29.4 °F /  -1.4 °C 24.0 °F /  -4.4 °C 29.95in /  1014.1hPa NW 5.0mph /  8km/h 11.0mph /  17.7km/h 80% 0.00in /  0mm
02:49 29.3 °F /  -1.5 °C 23.9 °F /  -4.5 °C 29.95in /  1014.1hPa NW 4.0mph /  6.4km/h 11.0mph /  17.7km/h 80% 0.00in /  0mm
02:54 29.3 °F /  -1.5 °C 24.2 °F /  -4.3 °C 29.95in /  1014.1hPa NNW 2.0mph /  3.2km/h 11.0mph /  17.7km/h 81% 0.00in /  0mm
02:59 29.2 °F /  -1.6 °C 24.1 °F /  -4.4 °C 29.96in /  1014.4hPa NW 6.0mph /  9.7km/h 12.0mph /  19.3km/h 81% 0.00in /  0mm
03:04 29.1 °F /  -1.6 °C 23.7 °F /  -4.6 °C 29.96in /  1014.4hPa NW 5.0mph /  8km/h 12.0mph /  19.3km/h 80% 0.00in /  0mm
03:09 29.1 °F /  -1.6 °C 23.7 °F /  -4.6 °C 29.96in /  1014.4hPa NNW 4.0mph /  6.4km/h 12.0mph /  19.3km/h 80% 0.00in /  0mm
03:14 29.0 °F /  -1.7 °C 23.3 °F /  -4.8 °C 29.96in /  1014.4hPa NNW 5.0mph /  8km/h 13.0mph /  20.9km/h 79% 0.00in /  0mm
03:19 28.8 °F /  -1.8 °C 22.8 °F /  -5.1 °C 29.97in /  1014.8hPa NW 3.0mph /  4.8km/h 13.0mph /  20.9km/h 78% 0.00in /  0mm
03:24 28.8 °F /  -1.8 °C 22.8 °F /  -5.1 °C 29.97in /  1014.8hPa NNW 4.0mph /  6.4km/h 12.0mph /  19.3km/h 78% 0.00in /  0mm
03:29 28.6 °F /  -1.9 °C 22.3 °F /  -5.4 °C 29.97in /  1014.8hPa NW 4.0mph /  6.4km/h 9.0mph /  14.5km/h 77% 0.00in /  0mm
03:34 28.5 °F /  -1.9 °C 22.2 °F /  -5.4 °C 29.97in /  1014.8hPa NW 7.0mph /  11.3km/h 15.0mph /  24.1km/h 77% 0.00in /  0mm
03:39 28.5 °F /  -1.9 °C 22.2 °F /  -5.4 °C 29.98in /  1015.1hPa NW 4.0mph /  6.4km/h 15.0mph /  24.1km/h 77% 0.00in /  0mm
03:44 28.4 °F /  -2 °C 21.8 °F /  -5.7 °C 29.98in /  1015.1hPa NNW 3.0mph /  4.8km/h 11.0mph /  17.7km/h 76% 0.00in /  0mm
03:49 28.3 °F /  -2.1 °C 21.7 °F /  -5.7 °C 29.98in /  1015.1hPa NW 4.0mph /  6.4km/h 9.0mph /  14.5km/h 76% 0.00in /  0mm
03:54 28.3 °F /  -2.1 °C 21.7 °F /  -5.7 °C 29.98in /  1015.1hPa NNW 3.0mph /  4.8km/h 8.0mph /  12.9km/h 76% 0.00in /  0mm
03:59 28.1 °F /  -2.2 °C 21.2 °F /  -6 °C 29.98in /  1015.1hPa NW 5.0mph /  8km/h 10.0mph /  16.1km/h 75% 0.00in /  0mm
04:04 28.0 °F /  -2.2 °C 20.8 °F /  -6.2 °C 29.99in /  1015.5hPa WNW 6.0mph /  9.7km/h 11.0mph /  17.7km/h 74% 0.00in /  0mm
04:09 28.0 °F /  -2.2 °C 20.8 °F /  -6.2 °C 29.99in /  1015.5hPa NW 6.0mph /  9.7km/h 12.0mph /  19.3km/h 74% 0.00in /  0mm
04:14 27.9 °F /  -2.3 °C 21.0 °F /  -6.1 °C 29.99in /  1015.5hPa NNW 2.0mph /  3.2km/h 12.0mph /  19.3km/h 75% 0.00in /  0mm
04:19 27.8 °F /  -2.3 °C 20.6 °F /  -6.3 °C 29.99in /  1015.5hPa NNW 5.0mph /  8km/h 10.0mph /  16.1km/h 74% 0.00in /  0mm
04:24 27.6 °F /  -2.4 °C 20.4 °F /  -6.4 °C 30.00in /  1015.8hPa NW 5.0mph /  8km/h 11.0mph /  17.7km/h 74% 0.00in /  0mm
04:29 27.5 °F /  -2.5 °C 20.0 °F /  -6.7 °C 30.00in /  1015.8hPa NW 7.0mph /  11.3km/h 11.0mph /  17.7km/h 73% 0.00in /  0mm
04:34 27.4 °F /  -2.6 °C 19.9 °F /  -6.7 °C 29.99in /  1015.5hPa NW 6.0mph /  9.7km/h 11.0mph /  17.7km/h 73% 0.00in /  0mm
04:39 27.3 °F /  -2.6 °C 19.8 °F /  -6.8 °C 30.00in /  1015.8hPa NW 5.0mph /  8km/h 11.0mph /  17.7km/h 73% 0.00in /  0mm
04:44 27.2 °F /  -2.7 °C 19.7 °F /  -6.8 °C 30.00in /  1015.8hPa NNW 6.0mph /  9.7km/h 11.0mph /  17.7km/h 73% 0.00in /  0mm
04:49 27.1 °F /  -2.7 °C 19.6 °F /  -6.9 °C 30.00in /  1015.8hPa NW 3.0mph /  4.8km/h 14.0mph /  22.5km/h 73% 0.00in /  0mm
04:54 26.9 °F /  -2.8 °C 19.1 °F /  -7.2 °C 30.01in /  1016.1hPa NW 6.0mph /  9.7km/h 14.0mph /  22.5km/h 72% 0.00in /  0mm
04:59 26.7 °F /  -2.9 °C 18.6 °F /  -7.4 °C 30.01in /  1016.1hPa NW 5.0mph /  8km/h 17.0mph /  27.4km/h 71% 0.00in /  0mm
05:04 26.6 °F /  -3 °C 18.8 °F /  -7.3 °C 30.01in /  1016.1hPa NNW 5.0mph /  8km/h 17.0mph /  27.4km/h 72% 0.00in /  0mm
05:09 26.5 °F /  -3.1 °C 18.7 °F /  -7.4 °C 30.01in /  1016.1hPa NW 6.0mph /  9.7km/h 13.0mph /  20.9km/h 72% 0.00in /  0mm
05:14 26.4 °F /  -3.1 °C 18.6 °F /  -7.4 °C 30.01in /  1016.1hPa NW 3.0mph /  4.8km/h 13.0mph /  20.9km/h 72% 0.00in /  0mm
05:19 26.3 °F /  -3.2 °C 18.2 °F /  -7.7 °C 30.02in /  1016.5hPa WNW 6.0mph /  9.7km/h 16.0mph /  25.7km/h 71% 0.00in /  0mm
05:24 26.2 °F /  -3.2 °C 18.1 °F /  -7.7 °C 30.02in /  1016.5hPa NW 7.0mph /  11.3km/h 16.0mph /  25.7km/h 71% 0.00in /  0mm
05:34 26.1 °F /  -3.3 °C 18.3 °F /  -7.6 °C 30.03in /  1016.8hPa NNW 2.0mph /  3.2km/h 11.0mph /  17.7km/h 72% 0.00in /  0mm
05:39 26.0 °F /  -3.3 °C 17.9 °F /  -7.8 °C 30.03in /  1016.8hPa WNW 3.0mph /  4.8km/h 8.0mph /  12.9km/h 71% 0.00in /  0mm
05:44 25.9 °F /  -3.4 °C 17.8 °F /  -7.9 °C 30.04in /  1017.2hPa NW 1.0mph /  1.6km/h 8.0mph /  12.9km/h 71% 0.00in /  0mm
05:49 25.8 °F /  -3.4 °C 18.0 °F /  -7.8 °C 30.04in /  1017.2hPa NW 3.0mph /  4.8km/h 8.0mph /  12.9km/h 72% 0.00in /  0mm
05:54 25.7 °F /  -3.5 °C 17.6 °F /  -8 °C 30.04in /  1017.2hPa NW 4.0mph /  6.4km/h 8.0mph /  12.9km/h 71% 0.00in /  0mm
05:59 25.6 °F /  -3.6 °C 17.5 °F /  -8.1 °C 30.04in /  1017.2hPa NNW 5.0mph /  8km/h 11.0mph /  17.7km/h 71% 0.00in /  0mm
06:04 25.5 °F /  -3.6 °C 17.4 °F /  -8.1 °C 30.04in /  1017.2hPa NW 3.0mph /  4.8km/h 11.0mph /  17.7km/h 71% 0.00in /  0mm
06:09 25.4 °F /  -3.7 °C 17.3 °F /  -8.2 °C 30.04in /  1017.2hPa NW 5.0mph /  8km/h 11.0mph /  17.7km/h 71% 0.00in /  0mm
06:14 25.3 °F /  -3.7 °C 17.5 °F /  -8.1 °C 30.04in /  1017.2hPa NW 3.0mph /  4.8km/h 12.0mph /  19.3km/h 72% 0.00in /  0mm
06:19 25.2 °F /  -3.8 °C 17.1 °F /  -8.3 °C 30.05in /  1017.5hPa NW 6.0mph /  9.7km/h 14.0mph /  22.5km/h 71% 0.00in /  0mm
06:24 25.1 °F /  -3.8 °C 17.0 °F /  -8.3 °C 30.05in /  1017.5hPa WNW 6.0mph /  9.7km/h 14.0mph /  22.5km/h 71% 0.00in /  0mm
06:29 24.9 °F /  -3.9 °C 16.5 °F /  -8.6 °C 30.05in /  1017.5hPa WNW 6.0mph /  9.7km/h 10.0mph /  16.1km/h 70% 0.00in /  0mm
06:34 24.8 °F /  -4 °C 16.4 °F /  -8.7 °C 30.06in /  1017.8hPa NW 4.0mph /  6.4km/h 11.0mph /  17.7km/h 70% 0.00in /  0mm
06:39 24.7 °F /  -4.1 °C 16.3 °F /  -8.7 °C 30.06in /  1017.8hPa NW 6.0mph /  9.7km/h 16.0mph /  25.7km/h 70% 0.00in /  0mm
06:49 24.5 °F /  -4.2 °C 16.1 °F /  -8.8 °C 30.07in /  1018.2hPa NNW 4.0mph /  6.4km/h 10.0mph /  16.1km/h 70% 0.00in /  0mm
06:54 24.4 °F /  -4.2 °C 16.0 °F /  -8.9 °C 30.07in /  1018.2hPa NNW 3.0mph /  4.8km/h 11.0mph /  17.7km/h 70% 0.00in /  0mm
06:59 24.3 °F /  -4.3 °C 15.9 °F /  -8.9 °C 30.07in /  1018.2hPa NW 5.0mph /  8km/h 12.0mph /  19.3km/h 70% 0.00in /  0mm
07:04 24.2 °F /  -4.3 °C 15.8 °F /  -9 °C 30.07in /  1018.2hPa NW 5.0mph /  8km/h 12.0mph /  19.3km/h 70% 0.00in /  0mm
07:09 24.0 °F /  -4.4 °C 15.3 °F /  -9.3 °C 30.07in /  1018.2hPa NNW 6.0mph /  9.7km/h 14.0mph /  22.5km/h 69% 0.00in /  0mm
07:14 24.0 °F /  -4.4 °C 15.6 °F /  -9.1 °C 30.08in /  1018.5hPa NW 5.0mph /  8km/h 14.0mph /  22.5km/h 70% 0.00in /  0mm
07:19 23.9 °F /  -4.5 °C 15.9 °F /  -8.9 °C 30.08in /  1018.5hPa NW 7.0mph /  11.3km/h 13.0mph /  20.9km/h 71% 0.00in /  0mm
07:24 23.8 °F /  -4.6 °C 15.8 °F /  -9 °C 30.08in /  1018.5hPa NW 8.0mph /  12.9km/h 13.0mph /  20.9km/h 71% 0.00in /  0mm
07:29 23.6 °F /  -4.7 °C 15.6 °F /  -9.1 °C 30.09in /  1018.8hPa NNW 5.0mph /  8km/h 14.0mph /  22.5km/h 71% 0.00in /  0mm
07:34 23.6 °F /  -4.7 °C 15.9 °F /  -8.9 °C 30.09in /  1018.8hPa NNW 5.0mph /  8km/h 14.0mph /  22.5km/h 72% 0.00in /  0mm
07:39 23.4 °F /  -4.8 °C 16.0 °F /  -8.9 °C 30.10in /  1019.2hPa NW 3.0mph /  4.8km/h 13.0mph /  20.9km/h 73% 0.00in /  0mm
07:44 23.3 °F /  -4.8 °C 15.9 °F /  -8.9 °C 30.10in /  1019.2hPa NNW 4.0mph /  6.4km/h 13.0mph /  20.9km/h 73% 0.00in /  0mm
07:49 23.1 °F /  -4.9 °C 15.7 °F /  -9.1 °C 30.10in /  1019.2hPa NNW 5.0mph /  8km/h 10.0mph /  16.1km/h 73% 0.00in /  0mm
07:54 23.0 °F /  -5 °C 15.6 °F /  -9.1 °C 30.11in /  1019.5hPa NNW 4.0mph /  6.4km/h 10.0mph /  16.1km/h 73% 0.00in /  0mm
07:59 22.9 °F /  -5.1 °C 15.5 °F /  -9.2 °C 30.11in /  1019.5hPa NW 4.0mph /  6.4km/h 10.0mph /  16.1km/h 73% 0.00in /  0mm
08:04 22.8 °F /  -5.1 °C 15.4 °F /  -9.2 °C 30.11in /  1019.5hPa NW 6.0mph /  9.7km/h 12.0mph /  19.3km/h 73% 0.00in /  0mm
08:09 22.7 °F /  -5.2 °C 15.7 °F /  -9.1 °C 30.11in /  1019.5hPa NNW 3.0mph /  4.8km/h 12.0mph /  19.3km/h 74% 0.00in /  0mm
08:14 22.7 °F /  -5.2 °C 15.7 °F /  -9.1 °C 30.11in /  1019.5hPa NW 5.0mph /  8km/h 9.0mph /  14.5km/h 74% 0.00in /  0mm
08:19 22.6 °F /  -5.2 °C 15.3 °F /  -9.3 °C 30.12in /  1019.9hPa NNW 5.0mph /  8km/h 13.0mph /  20.9km/h 73% 0.00in /  0mm
08:24 22.6 °F /  -5.2 °C 15.3 °F /  -9.3 °C 30.12in /  1019.9hPa NW 5.0mph /  8km/h 13.0mph /  20.9km/h 73% 0.00in /  0mm
08:30 22.5 °F /  -5.3 °C 15.2 °F /  -9.3 °C 30.12in /  1019.9hPa NW 5.0mph /  8km/h 9.0mph /  14.5km/h 73% 0.00in /  0mm
08:39 22.6 °F /  -5.2 °C 15.3 °F /  -9.3 °C 30.12in /  1019.9hPa NNW 2.0mph /  3.2km/h 10.0mph /  16.1km/h 73% 0.00in /  0mm
08:49 22.7 °F /  -5.2 °C 15.3 °F /  -9.3 °C 30.13in /  1020.2hPa North 3.0mph /  4.8km/h 9.0mph /  14.5km/h 73% 0.00in /  0mm
08:54 22.8 °F /  -5.1 °C 15.4 °F /  -9.2 °C 30.13in /  1020.2hPa NNW 4.0mph /  6.4km/h 9.0mph /  14.5km/h 73% 0.00in /  0mm
08:59 22.9 °F /  -5.1 °C 15.5 °F /  -9.2 °C 30.13in /  1020.2hPa NNW 3.0mph /  4.8km/h 9.0mph /  14.5km/h 73% 0.00in /  0mm
09:04 22.9 °F /  -5.1 °C 15.5 °F /  -9.2 °C 30.14in /  1020.5hPa NNW 5.0mph /  8km/h 11.0mph /  17.7km/h 73% 0.00in /  0mm
09:09 22.9 °F /  -5.1 °C 15.9 °F /  -8.9 °C 30.14in /  1020.5hPa NNE 1.0mph /  1.6km/h 11.0mph /  17.7km/h 74% 0.00in /  0mm
09:14 22.9 °F /  -5.1 °C 15.9 °F /  -8.9 °C 30.14in /  1020.5hPa North 2.0mph /  3.2km/h 6.0mph /  9.7km/h 74% 0.00in /  0mm
09:19 23.0 °F /  -5 °C 16.3 °F /  -8.7 °C 30.14in /  1020.5hPa NNW 1.0mph /  1.6km/h 6.0mph /  9.7km/h 75% 0.00in /  0mm
09:24 23.2 °F /  -4.9 °C 16.5 °F /  -8.6 °C 30.14in /  1020.5hPa NNW 2.0mph /  3.2km/h 6.0mph /  9.7km/h 75% 0.00in /  0mm
09:29 23.2 °F /  -4.9 °C 15.8 °F /  -9 °C 30.14in /  1020.5hPa NNW 3.0mph /  4.8km/h 6.0mph /  9.7km/h 73% 0.00in /  0mm
09:34 23.4 °F /  -4.8 °C 15.4 °F /  -9.2 °C 30.15in /  1020.9hPa NNW 4.0mph /  6.4km/h 7.0mph /  11.3km/h 71% 0.00in /  0mm
09:39 23.3 °F /  -4.8 °C 15.3 °F /  -9.3 °C 30.15in /  1020.9hPa NW 2.0mph /  3.2km/h 7.0mph /  11.3km/h 71% 0.00in /  0mm
09:44 23.3 °F /  -4.8 °C 15.0 °F /  -9.4 °C 30.15in /  1020.9hPa NNW 2.0mph /  3.2km/h 7.0mph /  11.3km/h 70% 0.00in /  0mm
09:49 23.4 °F /  -4.8 °C 15.1 °F /  -9.4 °C 30.15in /  1020.9hPa NW 1.0mph /  1.6km/h 6.0mph /  9.7km/h 70% 0.00in /  0mm
09:54 23.6 °F /  -4.7 °C 15.3 °F /  -9.3 °C 30.15in /  1020.9hPa NW 1.0mph /  1.6km/h 6.0mph /  9.7km/h 70% 0.00in /  0mm
09:59 23.8 °F /  -4.6 °C 15.4 °F /  -9.2 °C 30.15in /  1020.9hPa NW 3.0mph /  4.8km/h 5.0mph /  8km/h 70% 0.00in /  0mm
10:04 24.0 °F /  -4.4 °C 15.3 °F /  -9.3 °C 30.15in /  1020.9hPa NNW 2.0mph /  3.2km/h 6.0mph /  9.7km/h 69% 0.00in /  0mm
10:09 24.1 °F /  -4.4 °C 15.4 °F /  -9.2 °C 30.15in /  1020.9hPa NNW 3.0mph /  4.8km/h 7.0mph /  11.3km/h 69% 0.00in /  0mm
10:14 24.3 °F /  -4.3 °C 15.3 °F /  -9.3 °C 30.15in /  1020.9hPa NNW 3.0mph /  4.8km/h 7.0mph /  11.3km/h 68% 0.00in /  0mm
10:19 24.0 °F /  -4.4 °C 14.6 °F /  -9.7 °C 30.15in /  1020.9hPa NW 3.0mph /  4.8km/h 7.0mph /  11.3km/h 67% 0.00in /  0mm
10:24 23.6 °F /  -4.7 °C 14.3 °F /  -9.8 °C 30.15in /  1020.9hPa NW 2.0mph /  3.2km/h 7.0mph /  11.3km/h 67% 0.00in /  0mm
10:29 23.4 °F /  -4.8 °C 14.1 °F /  -9.9 °C 30.15in /  1020.9hPa Calm   6.0mph /  9.7km/h 67% 0.00in /  0mm
10:34 23.4 °F /  -4.8 °C 14.1 °F /  -9.9 °C 30.15in /  1020.9hPa NW 2.0mph /  3.2km/h 5.0mph /  8km/h 67% 0.00in /  0mm
10:39 23.5 °F /  -4.7 °C 14.2 °F /  -9.9 °C 30.15in /  1020.9hPa Calm   5.0mph /  8km/h 67% 0.00in /  0mm
10:44 23.7 °F /  -4.6 °C 14.7 °F /  -9.6 °C 30.15in /  1020.9hPa NNW 2.0mph /  3.2km/h 5.0mph /  8km/h 68% 0.00in /  0mm
10:49 23.7 °F /  -4.6 °C 14.3 °F /  -9.8 °C 30.15in /  1020.9hPa NW 4.0mph /  6.4km/h 7.0mph /  11.3km/h 67% 0.00in /  0mm
10:54 23.8 °F /  -4.6 °C 14.4 °F /  -9.8 °C 30.15in /  1020.9hPa Calm   7.0mph /  11.3km/h 67% 0.00in /  0mm
10:59 24.0 °F /  -4.4 °C 15.0 °F /  -9.4 °C 30.15in /  1020.9hPa NW 2.0mph /  3.2km/h 5.0mph /  8km/h 68% 0.00in /  0mm
11:04 24.3 °F /  -4.3 °C 15.3 °F /  -9.3 °C 30.15in /  1020.9hPa West 3.0mph /  4.8km/h 6.0mph /  9.7km/h 68% 0.00in /  0mm
11:09 24.9 °F /  -3.9 °C 15.8 °F /  -9 °C 30.15in /  1020.9hPa NNW 2.0mph /  3.2km/h 7.0mph /  11.3km/h 68% 0.00in /  0mm
11:14 25.7 °F /  -3.5 °C 16.3 °F /  -8.7 °C 30.15in /  1020.9hPa North 2.0mph /  3.2km/h 7.0mph /  11.3km/h 67% 0.00in /  0mm
11:19 26.2 °F /  -3.2 °C 16.0 °F /  -8.9 °C 30.15in /  1020.9hPa NW 2.0mph /  3.2km/h 7.0mph /  11.3km/h 65% 0.00in /  0mm
11:24 26.2 °F /  -3.2 °C 15.7 °F /  -9.1 °C 30.15in /  1020.9hPa NW 5.0mph /  8km/h 8.0mph /  12.9km/h 64% 0.00in /  0mm
11:34 26.3 °F /  -3.2 °C 16.5 °F /  -8.6 °C 30.15in /  1020.9hPa North 4.0mph /  6.4km/h 9.0mph /  14.5km/h 66% 0.00in /  0mm
11:39 26.1 °F /  -3.3 °C 15.9 °F /  -8.9 °C 30.16in /  1021.2hPa NNW 3.0mph /  4.8km/h 9.0mph /  14.5km/h 65% 0.00in /  0mm
11:44 25.9 °F /  -3.4 °C 15.8 °F /  -9 °C 30.16in /  1021.2hPa NNW 5.0mph /  8km/h 9.0mph /  14.5km/h 65% 0.00in /  0mm
11:49 24.9 °F /  -3.9 °C 15.2 °F /  -9.3 °C 30.16in /  1021.2hPa NW 4.0mph /  6.4km/h 9.0mph /  14.5km/h 66% 0.00in /  0mm
11:54 24.6 °F /  -4.1 °C 15.2 °F /  -9.3 °C 30.16in /  1021.2hPa NW 4.0mph /  6.4km/h 9.0mph /  14.5km/h 67% 0.00in /  0mm
11:59 24.3 °F /  -4.3 °C 14.9 °F /  -9.5 °C 30.16in /  1021.2hPa NNW 2.0mph /  3.2km/h 9.0mph /  14.5km/h 67% 0.00in /  0mm
12:04 24.3 °F /  -4.3 °C 15.3 °F /  -9.3 °C 30.15in /  1020.9hPa North 3.0mph /  4.8km/h 8.0mph /  12.9km/h 68% 0.00in /  0mm
12:09 24.0 °F /  -4.4 °C 15.0 °F /  -9.4 °C 30.16in /  1021.2hPa NW 6.0mph /  9.7km/h 10.0mph /  16.1km/h 68% 0.00in /  0mm
12:14 23.5 °F /  -4.7 °C 14.8 °F /  -9.6 °C 30.16in /  1021.2hPa North 3.0mph /  4.8km/h 10.0mph /  16.1km/h 69% 0.00in /  0mm
12:19 23.3 °F /  -4.8 °C 15.0 °F /  -9.4 °C 30.16in /  1021.2hPa WNW 2.0mph /  3.2km/h 9.0mph /  14.5km/h 70% 0.00in /  0mm
12:24 23.5 °F /  -4.7 °C 15.2 °F /  -9.3 °C 30.16in /  1021.2hPa WNW 1.0mph /  1.6km/h 7.0mph /  11.3km/h 70% 0.00in /  0mm
12:29 23.5 °F /  -4.7 °C 14.5 °F /  -9.7 °C 30.16in /  1021.2hPa NW 6.0mph /  9.7km/h 10.0mph /  16.1km/h 68% 0.00in /  0mm
12:39 23.5 °F /  -4.7 °C 15.2 °F /  -9.3 °C 30.16in /  1021.2hPa NNW 4.0mph /  6.4km/h 8.0mph /  12.9km/h 70% 0.00in /  0mm
12:49 23.5 °F /  -4.7 °C 15.2 °F /  -9.3 °C 30.16in /  1021.2hPa NW 3.0mph /  4.8km/h 10.0mph /  16.1km/h 70% 0.00in /  0mm
12:54 22.9 °F /  -5.1 °C 14.6 °F /  -9.7 °C 30.16in /  1021.2hPa NNW 4.0mph /  6.4km/h 10.0mph /  16.1km/h 70% 0.00in /  0mm
12:59 22.6 °F /  -5.2 °C 14.6 °F /  -9.7 °C 30.17in /  1021.6hPa NW 3.0mph /  4.8km/h 10.0mph /  16.1km/h 71% 0.00in /  0mm
13:04 22.6 °F /  -5.2 °C 14.9 °F /  -9.5 °C 30.17in /  1021.6hPa NNW 2.0mph /  3.2km/h 8.0mph /  12.9km/h 72% 0.00in /  0mm
13:09 22.7 °F /  -5.2 °C 15.0 °F /  -9.4 °C 30.17in /  1021.6hPa NNE 3.0mph /  4.8km/h 8.0mph /  12.9km/h 72% 0.00in /  0mm
13:14 22.8 °F /  -5.1 °C 15.1 °F /  -9.4 °C 30.17in /  1021.6hPa NNE 2.0mph /  3.2km/h 8.0mph /  12.9km/h 72% 0.00in /  0mm
13:19 22.7 °F /  -5.2 °C 14.7 °F /  -9.6 °C 30.17in /  1021.6hPa North 3.0mph /  4.8km/h 10.0mph /  16.1km/h 71% 0.00in /  0mm
13:24 22.5 °F /  -5.3 °C 14.5 °F /  -9.7 °C 30.17in /  1021.6hPa North 3.0mph /  4.8km/h 10.0mph /  16.1km/h 71% 0.00in /  0mm
13:29 22.4 °F /  -5.3 °C 14.4 °F /  -9.8 °C 30.17in /  1021.6hPa Calm   10.0mph /  16.1km/h 71% 0.00in /  0mm
13:34 22.3 °F /  -5.4 °C 14.6 °F /  -9.7 °C 30.17in /  1021.6hPa North 1.0mph /  1.6km/h 9.0mph /  14.5km/h 72% 0.00in /  0mm
13:39 22.3 °F /  -5.4 °C 14.6 °F /  -9.7 °C 30.17in /  1021.6hPa North 2.0mph /  3.2km/h 9.0mph /  14.5km/h 72% 0.00in /  0mm
13:44 22.2 °F /  -5.4 °C 14.6 °F /  -9.7 °C 30.18in /  1021.9hPa North 2.0mph /  3.2km/h 7.0mph /  11.3km/h 72% 0.00in /  0mm
13:49 22.1 °F /  -5.5 °C 14.8 °F /  -9.6 °C 30.18in /  1021.9hPa North 3.0mph /  4.8km/h 7.0mph /  11.3km/h 73% 0.00in /  0mm
13:54 22.0 °F /  -5.6 °C 15.0 °F /  -9.4 °C 30.18in /  1021.9hPa NNE 4.0mph /  6.4km/h 7.0mph /  11.3km/h 74% 0.00in /  0mm
13:59 21.9 °F /  -5.6 °C 15.2 °F /  -9.3 °C 30.18in /  1021.9hPa NE 1.0mph /  1.6km/h 8.0mph /  12.9km/h 75% 0.00in /  0mm
14:04 21.8 °F /  -5.7 °C 15.1 °F /  -9.4 °C 30.18in /  1021.9hPa North 2.0mph /  3.2km/h 8.0mph /  12.9km/h 75% 0.00in /  0mm
14:09 21.8 °F /  -5.7 °C 15.1 °F /  -9.4 °C 30.19in /  1022.2hPa North 1.0mph /  1.6km/h 7.0mph /  11.3km/h 75% 0.00in /  0mm
14:14 21.3 °F /  -5.9 °C 14.6 °F /  -9.7 °C 30.19in /  1022.2hPa NNE 1.0mph /  1.6km/h 8.0mph /  12.9km/h 75% 0.00in /  0mm
14:19 21.2 °F /  -6 °C 14.8 °F /  -9.6 °C 30.19in /  1022.2hPa NNW 1.0mph /  1.6km/h 8.0mph /  12.9km/h 76% 0.00in /  0mm
14:24 21.2 °F /  -6 °C 14.8 °F /  -9.6 °C 30.19in /  1022.2hPa NNW 1.0mph /  1.6km/h 5.0mph /  8km/h 76% 0.00in /  0mm
14:29 21.1 °F /  -6.1 °C 14.4 °F /  -9.8 °C 30.19in /  1022.2hPa North 2.0mph /  3.2km/h 7.0mph /  11.3km/h 75% 0.00in /  0mm
14:34 21.0 °F /  -6.1 °C 14.3 °F /  -9.8 °C 30.19in /  1022.2hPa NNE 3.0mph /  4.8km/h 7.0mph /  11.3km/h 75% 0.00in /  0mm
14:39 21.0 °F /  -6.1 °C 14.3 °F /  -9.8 °C 30.19in /  1022.2hPa NNW 1.0mph /  1.6km/h 7.0mph /  11.3km/h 75% 0.00in /  0mm
14:44 20.9 °F /  -6.2 °C 14.5 °F /  -9.7 °C 30.20in /  1022.6hPa NNE 1.0mph /  1.6km/h 7.0mph /  11.3km/h 76% 0.00in /  0mm
14:49 20.9 °F /  -6.2 °C 14.2 °F /  -9.9 °C 30.20in /  1022.6hPa NNE 2.0mph /  3.2km/h 7.0mph /  11.3km/h 75% 0.00in /  0mm
14:54 20.8 °F /  -6.2 °C 14.4 °F /  -9.8 °C 30.20in /  1022.6hPa Calm   7.0mph /  11.3km/h 76% 0.00in /  0mm
14:59 20.8 °F /  -6.2 °C 14.4 °F /  -9.8 °C 30.20in /  1022.6hPa Calm   7.0mph /  11.3km/h 76% 0.00in /  0mm
15:04 20.8 °F /  -6.2 °C 14.1 °F /  -9.9 °C 30.20in /  1022.6hPa NNW 1.0mph /  1.6km/h 4.0mph /  6.4km/h 75% 0.00in /  0mm
15:09 20.7 °F /  -6.3 °C 14.0 °F /  -10 °C 30.20in /  1022.6hPa NNE 1.0mph /  1.6km/h 6.0mph /  9.7km/h 75% 0.00in /  0mm
15:14 20.6 °F /  -6.3 °C 14.2 °F /  -9.9 °C 30.20in /  1022.6hPa NNE 1.0mph /  1.6km/h 6.0mph /  9.7km/h 76% 0.00in /  0mm
15:19 20.6 °F /  -6.3 °C 14.2 °F /  -9.9 °C 30.21in /  1022.9hPa NNE 1.0mph /  1.6km/h 6.0mph /  9.7km/h 76% 0.00in /  0mm
15:24 20.5 °F /  -6.4 °C 14.1 °F /  -9.9 °C 30.21in /  1022.9hPa North 2.0mph /  3.2km/h 5.0mph /  8km/h 76% 0.00in /  0mm
15:29 20.4 °F /  -6.4 °C 14.0 °F /  -10 °C 30.21in /  1022.9hPa North 2.0mph /  3.2km/h 6.0mph /  9.7km/h 76% 0.00in /  0mm
15:34 20.2 °F /  -6.6 °C 13.9 °F /  -10.1 °C 30.21in /  1022.9hPa NNE 1.0mph /  1.6km/h 6.0mph /  9.7km/h 76% 0.00in /  0mm
15:39 20.0 °F /  -6.7 °C 13.7 °F /  -10.2 °C 30.21in /  1022.9hPa NNE 3.0mph /  4.8km/h 7.0mph /  11.3km/h 76% 0.00in /  0mm
15:44 19.9 °F /  -6.7 °C 13.6 °F /  -10.2 °C 30.21in /  1022.9hPa NE 1.0mph /  1.6km/h 7.0mph /  11.3km/h 76% 0.00in /  0mm
15:49 19.9 °F /  -6.7 °C 13.6 °F /  -10.2 °C 30.22in /  1023.2hPa NE 1.0mph /  1.6km/h 4.0mph /  6.4km/h 76% 0.00in /  0mm
15:54 19.9 °F /  -6.7 °C 13.6 °F /  -10.2 °C 30.22in /  1023.2hPa NNE 2.0mph /  3.2km/h 7.0mph /  11.3km/h 76% 0.00in /  0mm
15:59 19.8 °F /  -6.8 °C 13.5 °F /  -10.3 °C 30.22in /  1023.2hPa Calm   7.0mph /  11.3km/h 76% 0.00in /  0mm
16:04 19.7 °F /  -6.8 °C 13.1 °F /  -10.5 °C 30.22in /  1023.2hPa NNE 1.0mph /  1.6km/h 4.0mph /  6.4km/h 75% 0.00in /  0mm
16:09 19.7 °F /  -6.8 °C 13.1 °F /  -10.5 °C 30.23in /  1023.6hPa NNE 2.0mph /  3.2km/h 6.0mph /  9.7km/h 75% 0.00in /  0mm
16:14 19.7 °F /  -6.8 °C 12.8 °F /  -10.7 °C 30.23in /  1023.6hPa NNW 2.0mph /  3.2km/h 6.0mph /  9.7km/h 74% 0.00in /  0mm
16:19 19.6 °F /  -6.9 °C 12.7 °F /  -10.7 °C 30.23in /  1023.6hPa NNE 1.0mph /  1.6km/h 4.0mph /  6.4km/h 74% 0.00in /  0mm
16:24 19.6 °F /  -6.9 °C 13.0 °F /  -10.6 °C 30.23in /  1023.6hPa NNW 1.0mph /  1.6km/h 6.0mph /  9.7km/h 75% 0.00in /  0mm
16:34 19.4 °F /  -7 °C 12.8 °F /  -10.7 °C 30.24in /  1023.9hPa Calm   6.0mph /  9.7km/h 75% 0.00in /  0mm
16:39 19.3 °F /  -7.1 °C 12.7 °F /  -10.7 °C 30.24in /  1023.9hPa Calm   3.0mph /  4.8km/h 75% 0.00in /  0mm
16:44 19.2 °F /  -7.1 °C 12.6 °F /  -10.8 °C 30.24in /  1023.9hPa Calm   4.0mph /  6.4km/h 75% 0.00in /  0mm
16:49 19.1 °F /  -7.2 °C 12.8 °F /  -10.7 °C 30.24in /  1023.9hPa NNE 1.0mph /  1.6km/h 5.0mph /  8km/h 76% 0.00in /  0mm
16:54 19.0 °F /  -7.2 °C 12.7 °F /  -10.7 °C 30.24in /  1023.9hPa NNE 2.0mph /  3.2km/h 5.0mph /  8km/h 76% 0.00in /  0mm
16:59 18.9 °F /  -7.3 °C 12.6 °F /  -10.8 °C 30.24in /  1023.9hPa Calm   5.0mph /  8km/h 76% 0.00in /  0mm
17:04 18.9 °F /  -7.3 °C 12.9 °F /  -10.6 °C 30.24in /  1023.9hPa Calm   4.0mph /  6.4km/h 77% 0.00in /  0mm
17:09 18.7 °F /  -7.4 °C 12.7 °F /  -10.7 °C 30.24in /  1023.9hPa NE 1.0mph /  1.6km/h 3.0mph /  4.8km/h 77% 0.00in /  0mm
17:14 18.6 °F /  -7.4 °C 12.6 °F /  -10.8 °C 30.24in /  1023.9hPa Calm   3.0mph /  4.8km/h 77% 0.00in /  0mm
17:19 18.5 °F /  -7.5 °C 12.5 °F /  -10.8 °C 30.25in /  1024.3hPa Calm   2.0mph /  3.2km/h 77% 0.00in /  0mm
17:24 18.4 °F /  -7.6 °C 12.7 °F /  -10.7 °C 30.25in /  1024.3hPa Calm   5.0mph /  8km/h 78% 0.00in /  0mm
17:29 18.2 °F /  -7.7 °C 12.2 °F /  -11 °C 30.25in /  1024.3hPa NE 1.0mph /  1.6km/h 5.0mph /  8km/h 77% 0.00in /  0mm
17:34 17.9 °F /  -7.8 °C 11.9 °F /  -11.2 °C 30.25in /  1024.3hPa Calm   4.0mph /  6.4km/h 77% 0.00in /  0mm
17:39 17.6 °F /  -8 °C 11.6 °F /  -11.3 °C 30.26in /  1024.6hPa Calm   2.0mph /  3.2km/h 77% 0.00in /  0mm
17:44 17.3 °F /  -8.2 °C 11.3 °F /  -11.5 °C 30.26in /  1024.6hPa Calm   2.0mph /  3.2km/h 77% 0.00in /  0mm
17:49 17.0 °F /  -8.3 °C 11.0 °F /  -11.7 °C 30.27in /  1024.9hPa Calm   2.0mph /  3.2km/h 77% 0.00in /  0mm
17:54 16.7 °F /  -8.5 °C 11.0 °F /  -11.7 °C 30.27in /  1024.9hPa NE 1.0mph /  1.6km/h 3.0mph /  4.8km/h 78% 0.00in /  0mm
17:59 16.4 °F /  -8.7 °C 10.7 °F /  -11.8 °C 30.27in /  1024.9hPa North 1.0mph /  1.6km/h 4.0mph /  6.4km/h 78% 0.00in /  0mm
18:04 16.2 °F /  -8.8 °C 10.8 °F /  -11.8 °C 30.27in /  1024.9hPa Calm   4.0mph /  6.4km/h 79% 0.00in /  0mm
18:09 16.1 °F /  -8.8 °C 10.7 °F /  -11.8 °C 30.27in /  1024.9hPa NNW 1.0mph /  1.6km/h 4.0mph /  6.4km/h 79% 0.00in /  0mm
18:14 16.0 °F /  -8.9 °C 10.6 °F /  -11.9 °C 30.27in /  1024.9hPa Calm   3.0mph /  4.8km/h 79% 0.00in /  0mm
18:19 16.0 °F /  -8.9 °C 10.6 °F /  -11.9 °C 30.27in /  1024.9hPa Calm   1.0mph /  1.6km/h 79% 0.00in /  0mm
18:24 15.8 °F /  -9 °C 10.4 °F /  -12 °C 30.28in /  1025.3hPa Calm     79% 0.00in /  0mm
18:29 15.6 °F /  -9.1 °C 10.3 °F /  -12.1 °C 30.28in /  1025.3hPa Calm     79% 0.00in /  0mm
18:34 15.4 °F /  -9.2 °C 10.3 °F /  -12.1 °C 30.28in /  1025.3hPa Calm     80% 0.00in /  0mm
18:39 15.4 °F /  -9.2 °C 10.3 °F /  -12.1 °C 30.28in /  1025.3hPa Calm   1.0mph /  1.6km/h 80% 0.00in /  0mm
18:44 15.2 °F /  -9.3 °C 10.1 °F /  -12.2 °C 30.28in /  1025.3hPa Calm   1.0mph /  1.6km/h 80% 0.00in /  0mm
18:49 15.2 °F /  -9.3 °C 10.1 °F /  -12.2 °C 30.28in /  1025.3hPa Calm   1.0mph /  1.6km/h 80% 0.00in /  0mm
18:54 15.2 °F /  -9.3 °C 10.1 °F /  -12.2 °C 30.28in /  1025.3hPa Calm   1.0mph /  1.6km/h 80% 0.00in /  0mm
18:59 15.1 °F /  -9.4 °C 10.0 °F /  -12.2 °C 30.28in /  1025.3hPa Calm     80% 0.00in /  0mm
19:04 15.0 °F /  -9.4 °C 9.9 °F /  -12.3 °C 30.29in /  1025.6hPa Calm   1.0mph /  1.6km/h 80% 0.00in /  0mm
19:09 14.8 °F /  -9.6 °C 9.8 °F /  -12.3 °C 30.29in /  1025.6hPa Calm   1.0mph /  1.6km/h 80% 0.00in /  0mm
19:14 14.8 °F /  -9.6 °C 10.0 °F /  -12.2 °C 30.29in /  1025.6hPa NNW 1.0mph /  1.6km/h 2.0mph /  3.2km/h 81% 0.00in /  0mm
19:19 14.8 °F /  -9.6 °C 10.0 °F /  -12.2 °C 30.29in /  1025.6hPa Calm   3.0mph /  4.8km/h 81% 0.00in /  0mm
19:24 14.8 °F /  -9.6 °C 9.8 °F /  -12.3 °C 30.29in /  1025.6hPa Calm   3.0mph /  4.8km/h 80% 0.00in /  0mm
19:30 14.8 °F /  -9.6 °C 10.0 °F /  -12.2 °C 30.29in /  1025.6hPa Calm   2.0mph /  3.2km/h 81% 0.00in /  0mm
19:39 13.7 °F /  -10.2 °C 8.7 °F /  -12.9 °C 30.29in /  1025.6hPa Calm   2.0mph /  3.2km/h 80% 0.00in /  0mm
19:44 13.5 °F /  -10.3 °C 8.8 °F /  -12.9 °C 30.29in /  1025.6hPa Calm     81% 0.00in /  0mm
19:49 13.7 °F /  -10.2 °C 9.2 °F /  -12.7 °C 30.29in /  1025.6hPa Calm   2.0mph /  3.2km/h 82% 0.00in /  0mm
19:54 13.9 °F /  -10.1 °C 9.4 °F /  -12.6 °C 30.29in /  1025.6hPa Calm   2.0mph /  3.2km/h 82% 0.00in /  0mm
19:59 14.0 °F /  -10 °C 9.5 °F /  -12.5 °C 30.29in /  1025.6hPa Calm   2.0mph /  3.2km/h 82% 0.00in /  0mm
20:04 13.9 °F /  -10.1 °C 9.2 °F /  -12.7 °C 30.29in /  1025.6hPa Calm   2.0mph /  3.2km/h 81% 0.00in /  0mm
20:09 13.7 °F /  -10.2 °C 9.2 °F /  -12.7 °C 30.29in /  1025.6hPa Calm     82% 0.00in /  0mm
20:14 13.6 °F /  -10.2 °C 9.1 °F /  -12.7 °C 30.29in /  1025.6hPa Calm     82% 0.00in /  0mm
20:19 13.3 °F /  -10.4 °C 8.8 °F /  -12.9 °C 30.29in /  1025.6hPa Calm     82% 0.00in /  0mm
20:24 12.8 °F /  -10.7 °C 8.3 °F /  -13.2 °C 30.29in /  1025.6hPa Calm     82% 0.00in /  0mm
20:29 12.5 °F /  -10.8 °C 8.1 °F /  -13.3 °C 30.29in /  1025.6hPa Calm     82% 0.00in /  0mm
20:34 12.4 °F /  -10.9 °C 8.2 °F /  -13.2 °C 30.29in /  1025.6hPa Calm     83% 0.00in /  0mm
20:39 12.5 °F /  -10.8 °C 8.3 °F /  -13.2 °C 30.29in /  1025.6hPa Calm   1.0mph /  1.6km/h 83% 0.00in /  0mm
20:49 11.4 °F /  -11.4 °C 7.0 °F /  -13.9 °C 30.29in /  1025.6hPa Calm     82% 0.00in /  0mm
20:54 11.1 °F /  -11.6 °C 6.7 °F /  -14.1 °C 30.29in /  1025.6hPa Calm     82% 0.00in /  0mm
20:59 11.1 °F /  -11.6 °C 7.0 °F /  -13.9 °C 30.29in /  1025.6hPa Calm     83% 0.00in /  0mm
21:04 10.9 °F /  -11.7 °C 6.8 °F /  -14 °C 30.29in /  1025.6hPa Calm     83% 0.00in /  0mm
21:09 11.3 °F /  -11.5 °C 7.4 °F /  -13.7 °C 30.29in /  1025.6hPa Calm     84% 0.00in /  0mm
21:14 11.5 °F /  -11.4 °C 7.6 °F /  -13.6 °C 30.29in /  1025.6hPa Calm   1.0mph /  1.6km/h 84% 0.00in /  0mm
21:19 11.7 °F /  -11.3 °C 7.8 °F /  -13.4 °C 30.29in /  1025.6hPa Calm   1.0mph /  1.6km/h 84% 0.00in /  0mm
21:24 11.5 °F /  -11.4 °C 7.6 °F /  -13.6 °C 30.28in /  1025.3hPa Calm     84% 0.00in /  0mm
21:29 11.1 °F /  -11.6 °C 7.0 °F /  -13.9 °C 30.29in /  1025.6hPa Calm     83% 0.00in /  0mm
21:34 10.6 °F /  -11.9 °C 6.5 °F /  -14.2 °C 30.29in /  1025.6hPa Calm     83% 0.00in /  0mm
21:39 10.2 °F /  -12.1 °C 6.1 °F /  -14.4 °C 30.29in /  1025.6hPa Calm     83% 0.00in /  0mm
21:44 9.9 °F /  -12.3 °C 5.8 °F /  -14.6 °C 30.29in /  1025.6hPa Calm     83% 0.00in /  0mm
21:49 9.9 °F /  -12.3 °C 6.0 °F /  -14.4 °C 30.29in /  1025.6hPa Calm     84% 0.00in /  0mm
21:54 9.9 °F /  -12.3 °C 6.0 °F /  -14.4 °C 30.29in /  1025.6hPa Calm     84% 0.00in /  0mm
21:59 9.7 °F /  -12.4 °C 5.6 °F /  -14.7 °C 30.29in /  1025.6hPa Calm     83% 0.00in /  0mm
22:04 9.6 °F /  -12.4 °C 5.7 °F /  -14.6 °C 30.29in /  1025.6hPa Calm     84% 0.00in /  0mm
22:09 9.4 °F /  -12.6 °C 5.5 °F /  -14.7 °C 30.29in /  1025.6hPa Calm     84% 0.00in /  0mm
22:14 9.5 °F /  -12.5 °C 5.6 °F /  -14.7 °C 30.29in /  1025.6hPa Calm     84% 0.00in /  0mm
22:19 9.4 °F /  -12.6 °C 5.5 °F /  -14.7 °C 30.29in /  1025.6hPa Calm     84% 0.00in /  0mm
22:24 9.2 °F /  -12.7 °C 5.1 °F /  -14.9 °C 30.29in /  1025.6hPa Calm     83% 0.00in /  0mm
22:29 9.4 °F /  -12.6 °C 5.5 °F /  -14.7 °C 30.29in /  1025.6hPa Calm     84% 0.00in /  0mm
22:34 9.9 °F /  -12.3 °C 6.0 °F /  -14.4 °C 30.29in /  1025.6hPa Calm     84% 0.00in /  0mm
22:39 9.7 °F /  -12.4 °C 5.8 °F /  -14.6 °C 30.29in /  1025.6hPa Calm     84% 0.00in /  0mm
22:44 9.6 °F /  -12.4 °C 5.7 °F /  -14.6 °C 30.29in /  1025.6hPa Calm     84% 0.00in /  0mm
22:49 9.6 °F /  -12.4 °C 5.7 °F /  -14.6 °C 30.28in /  1025.3hPa Calm     84% 0.00in /  0mm
22:54 9.5 °F /  -12.5 °C 5.6 °F /  -14.7 °C 30.28in /  1025.3hPa Calm     84% 0.00in /  0mm
22:59 9.4 °F /  -12.6 °C 5.5 °F /  -14.7 °C 30.28in /  1025.3hPa Calm     84% 0.00in /  0mm
23:04 9.0 °F /  -12.8 °C 5.2 °F /  -14.9 °C 30.28in /  1025.3hPa Calm     84% 0.00in /  0mm
23:09 8.9 °F /  -12.8 °C 5.1 °F /  -14.9 °C 30.28in /  1025.3hPa Calm     84% 0.00in /  0mm
23:14 8.6 °F /  -13 °C 4.5 °F /  -15.3 °C 30.28in /  1025.3hPa Calm     83% 0.00in /  0mm
23:19 8.3 °F /  -13.2 °C 4.2 °F /  -15.4 °C 30.27in /  1024.9hPa Calm     83% 0.00in /  0mm
23:24 8.0 °F /  -13.3 °C 3.9 °F /  -15.6 °C 30.27in /  1024.9hPa Calm     83% 0.00in /  0mm
23:29 8.0 °F /  -13.3 °C 3.9 °F /  -15.6 °C 30.27in /  1024.9hPa Calm     83% 0.00in /  0mm
23:34 8.2 °F /  -13.2 °C 4.4 °F /  -15.3 °C 30.27in /  1024.9hPa Calm     84% 0.00in /  0mm
23:39 8.3 °F /  -13.2 °C 4.5 °F /  -15.3 °C 30.27in /  1024.9hPa Calm     84% 0.00in /  0mm
23:44 8.7 °F /  -12.9 °C 4.9 °F /  -15.1 °C 30.27in /  1024.9hPa Calm     84% 0.00in /  0mm
23:49 8.6 °F /  -13 °C 4.8 °F /  -15.1 °C 30.27in /  1024.9hPa Calm     84% 0.00in /  0mm
23:54 8.5 °F /  -13.1 °C 4.7 °F /  -15.2 °C 30.27in /  1024.9hPa Calm     84% 0.00in /  0mm
23:59 8.0 °F /  -13.3 °C 3.9 °F /  -15.6 °C 30.27in /  1024.9hPa Calm     83% 0.00in /  0mm
Westford Weather
Compliments of Weather Underground

 
 
Current Radar Loop:

Copyright © WestfordWeather.net 2007-2014. All rights reserved.